North Cornwall, Pennsylvania
Current Conditions -  °F | °C
As of 1:49 PM on Wednesday 26 Nov 2014 (Local Time) from KMUI Reporting Station
Light Rain Light Rain  
Wind Chill: 28°   Ceiling: 900
Heat Index: 34°   Visibility: 10mi
Dew Point: 32°   Wind: 7mph
Humidity: 93%   Direction: 30°NNE
Pressure: 29.93"   Gusts: NA
Location:  40.2957°N, 76.4189°W
Report Text: KMUI 261849Z AUTO 03006KT 10SM -RA BKN009 BKN014 OVC028 01/00 A2993 RMK AO2 RAB1758E1759B1821E1838SNE1758B1805E1820RAB1759E1805B1820E1821B1849 PRESFR $
Loading
Personal Weather Stations






























Interactive Weather Map New forecast layout! Learn more

10-Day Weather Forecast

Advertisements
Track Severe Weather on mobile